sensor_id;sensor_type;location;lat;lon;timestamp;pressure;altitude;pressure_sealevel;temperature;humidity
51099;BME280;37146;48.210;16.234;2023-04-27T00:01:31;99080.31;;;4.00;98.09
51099;BME280;37146;48.210;16.234;2023-04-27T00:03:56;99079.53;;;3.97;97.83
51099;BME280;37146;48.210;16.234;2023-04-27T00:06:22;99073.31;;;3.98;98.51
51099;BME280;37146;48.210;16.234;2023-04-27T00:08:47;99073.25;;;4.01;100.00
51099;BME280;37146;48.210;16.234;2023-04-27T00:11:12;99068.84;;;4.01;98.32
51099;BME280;37146;48.210;16.234;2023-04-27T00:13:38;99069.47;;;4.11;99.46
51099;BME280;37146;48.210;16.234;2023-04-27T00:16:03;99073.00;;;4.12;99.23
51099;BME280;37146;48.210;16.234;2023-04-27T00:18:29;99065.06;;;4.12;98.01
51099;BME280;37146;48.210;16.234;2023-04-27T00:20:54;99063.84;;;3.87;97.77
51099;BME280;37146;48.210;16.234;2023-04-27T00:23:20;99063.22;;;3.78;97.59
51099;BME280;37146;48.210;16.234;2023-04-27T00:25:45;99074.66;;;3.78;99.20
51099;BME280;37146;48.210;16.234;2023-04-27T00:28:11;99073.31;;;3.98;98.76
51099;BME280;37146;48.210;16.234;2023-04-27T00:30:36;99068.34;;;3.85;97.62
51099;BME280;37146;48.210;16.234;2023-04-27T00:33:01;99064.06;;;3.80;97.85
51099;BME280;37146;48.210;16.234;2023-04-27T00:35:26;99059.28;;;3.94;98.23
51099;BME280;37146;48.210;16.234;2023-04-27T00:37:52;99063.09;;;3.82;100.00
51099;BME280;37146;48.210;16.234;2023-04-27T00:40:19;99059.66;;;3.79;100.00
51099;BME280;37146;48.210;16.234;2023-04-27T00:42:44;99061.41;;;3.80;99.96
51099;BME280;37146;48.210;16.234;2023-04-27T00:45:10;99057.94;;;3.76;98.92
51099;BME280;37146;48.210;16.234;2023-04-27T00:47:35;99060.41;;;3.85;99.16
51099;BME280;37146;48.210;16.234;2023-04-27T00:50:00;99056.75;;;3.90;100.00
51099;BME280;37146;48.210;16.234;2023-04-27T00:52:25;99054.00;;;3.94;98.57
51099;BME280;37146;48.210;16.234;2023-04-27T00:54:51;99055.66;;;3.98;98.59
51099;BME280;37146;48.210;16.234;2023-04-27T00:57:16;99057.66;;;3.89;98.62
51099;BME280;37146;48.210;16.234;2023-04-27T00:59:42;99058.50;;;3.91;100.00
51099;BME280;37146;48.210;16.234;2023-04-27T01:02:08;99054.00;;;3.94;100.00
51099;BME280;37146;48.210;16.234;2023-04-27T01:04:33;99056.94;;;3.82;100.00
51099;BME280;37146;48.210;16.234;2023-04-27T01:07:00;99054.25;;;3.83;100.00
51099;BME280;37146;48.210;16.234;2023-04-27T01:09:26;99047.41;;;3.75;100.00
51099;BME280;37146;48.210;16.234;2023-04-27T01:11:51;99051.28;;;3.60;100.00
51099;BME280;37146;48.210;16.234;2023-04-27T01:14:17;99052.84;;;3.68;100.00
51099;BME280;37146;48.210;16.234;2023-04-27T01:16:42;99055.66;;;3.61;100.00
51099;BME280;37146;48.210;16.234;2023-04-27T01:19:08;99053.19;;;3.53;100.00
51099;BME280;37146;48.210;16.234;2023-04-27T01:21:33;99050.50;;;3.54;100.00
51099;BME280;37146;48.210;16.234;2023-04-27T01:23:58;99045.78;;;3.30;100.00
51099;BME280;37146;48.210;16.234;2023-04-27T01:26:24;99049.56;;;3.16;100.00
51099;BME280;37146;48.210;16.234;2023-04-27T01:28:49;99055.72;;;3.17;100.00
51099;BME280;37146;48.210;16.234;2023-04-27T01:31:14;99058.09;;;3.31;100.00
51099;BME280;37146;48.210;16.234;2023-04-27T01:33:40;99058.34;;;3.17;100.00
51099;BME280;37146;48.210;16.234;2023-04-27T01:36:06;99060.34;;;3.07;100.00
51099;BME280;37146;48.210;16.234;2023-04-27T01:38:31;99051.63;;;3.02;100.00
51099;BME280;37146;48.210;16.234;2023-04-27T01:40:57;99062.19;;;3.02;100.00
51099;BME280;37146;48.210;16.234;2023-04-27T01:43:26;99057.59;;;3.10;100.00
51099;BME280;37146;48.210;16.234;2023-04-27T01:45:51;99057.88;;;2.98;100.00
51099;BME280;37146;48.210;16.234;2023-04-27T01:48:16;99056.84;;;3.03;100.00
51099;BME280;37146;48.210;16.234;2023-04-27T01:50:42;99059.50;;;3.03;100.00
51099;BME280;37146;48.210;16.234;2023-04-27T01:53:07;99064.41;;;2.78;100.00
51099;BME280;37146;48.210;16.234;2023-04-27T01:55:32;99061.00;;;2.71;100.00
51099;BME280;37146;48.210;16.234;2023-04-27T01:57:57;99068.06;;;2.71;100.00
51099;BME280;37146;48.210;16.234;2023-04-27T02:00:22;99068.13;;;2.68;100.00
51099;BME280;37146;48.210;16.234;2023-04-27T02:02:48;99070.09;;;2.56;100.00
51099;BME280;37146;48.210;16.234;2023-04-27T02:05:17;99073.41;;;2.68;100.00
51099;BME280;37146;48.210;16.234;2023-04-27T02:07:42;99073.41;;;2.68;100.00
51099;BME280;37146;48.210;16.234;2023-04-27T02:10:07;99070.22;;;2.50;100.00
51099;BME280;37146;48.210;16.234;2023-04-27T02:12:33;99069.19;;;2.57;100.00
51099;BME280;37146;48.210;16.234;2023-04-27T02:14:58;99064.75;;;2.59;100.00
51099;BME280;37146;48.210;16.234;2023-04-27T02:17:23;99065.75;;;2.54;100.00
51099;BME280;37146;48.210;16.234;2023-04-27T02:19:48;99071.06;;;2.52;100.00
51099;BME280;37146;48.210;16.234;2023-04-27T02:22:14;99077.25;;;2.51;100.00
51099;BME280;37146;48.210;16.234;2023-04-27T02:24:40;99070.16;;;2.53;100.00
51099;BME280;37146;48.210;16.234;2023-04-27T02:27:05;99073.75;;;2.49;100.00
51099;BME280;37146;48.210;16.234;2023-04-27T02:29:31;99074.00;;;2.34;100.00
51099;BME280;37146;48.210;16.234;2023-04-27T02:31:56;99074.00;;;2.34;100.00
51099;BME280;37146;48.210;16.234;2023-04-27T02:34:21;99074.81;;;2.37;100.00
51099;BME280;37146;48.210;16.234;2023-04-27T02:36:46;99074.16;;;2.24;100.00
51099;BME280;37146;48.210;16.234;2023-04-27T02:39:11;99073.88;;;2.41;100.00
51099;BME280;37146;48.210;16.234;2023-04-27T02:41:37;99068.94;;;2.21;100.00
51099;BME280;37146;48.210;16.234;2023-04-27T02:44:02;99082.06;;;2.26;100.00
51099;BME280;37146;48.210;16.234;2023-04-27T02:46:27;99077.81;;;2.17;100.00
51099;BME280;37146;48.210;16.234;2023-04-27T02:48:53;99074.94;;;2.31;100.00
51099;BME280;37146;48.210;16.234;2023-04-27T02:51:19;99077.84;;;2.14;100.00
51099;BME280;37146;48.210;16.234;2023-04-27T02:53:44;99082.25;;;2.15;100.00
51099;BME280;37146;48.210;16.234;2023-04-27T02:56:09;99078.59;;;2.24;100.00
51099;BME280;37146;48.210;16.234;2023-04-27T02:58:35;99071.84;;;2.04;100.00
51099;BME280;37146;48.210;16.234;2023-04-27T03:01:00;99077.47;;;1.82;100.00
51099;BME280;37146;48.210;16.234;2023-04-27T03:03:26;99073.03;;;1.86;100.00
51099;BME280;37146;48.210;16.234;2023-04-27T03:05:53;99080.09;;;1.84;100.00
51099;BME280;37146;48.210;16.234;2023-04-27T03:08:18;99076.50;;;1.88;100.00
51099;BME280;37146;48.210;16.234;2023-04-27T03:10:44;99078.25;;;1.89;100.00
51099;BME280;37146;48.210;16.234;2023-04-27T03:13:09;99079.63;;;2.13;100.00
51099;BME280;37146;48.210;16.234;2023-04-27T03:15:34;99079.72;;;2.09;100.00
51099;BME280;37146;48.210;16.234;2023-04-27T03:17:59;99079.06;;;1.94;100.00
51099;BME280;37146;48.210;16.234;2023-04-27T03:20:25;99077.91;;;2.12;100.00
51099;BME280;37146;48.210;16.234;2023-04-27T03:22:50;99082.44;;;2.03;100.00
51099;BME280;37146;48.210;16.234;2023-04-27T03:25:15;99079.78;;;2.03;100.00
51099;BME280;37146;48.210;16.234;2023-04-27T03:27:41;99088.84;;;1.86;100.00
51099;BME280;37146;48.210;16.234;2023-04-27T03:30:07;99087.00;;;1.91;100.00
51099;BME280;37146;48.210;16.234;2023-04-27T03:32:33;99086.16;;;1.91;100.00
51099;BME280;37146;48.210;16.234;2023-04-27T03:34:58;99091.44;;;1.89;100.00
51099;BME280;37146;48.210;16.234;2023-04-27T03:37:23;99091.66;;;1.74;100.00
51099;BME280;37146;48.210;16.234;2023-04-27T03:39:49;99096.09;;;1.72;100.00
51099;BME280;37146;48.210;16.234;2023-04-27T03:42:14;99090.84;;;1.68;100.00
51099;BME280;37146;48.210;16.234;2023-04-27T03:44:39;99094.31;;;1.74;100.00
51099;BME280;37146;48.210;16.234;2023-04-27T03:47:04;99102.09;;;1.83;100.00
51099;BME280;37146;48.210;16.234;2023-04-27T03:49:33;99092.41;;;1.82;100.00
51099;BME280;37146;48.210;16.234;2023-04-27T03:51:58;99099.69;;;1.66;100.00
51099;BME280;37146;48.210;16.234;2023-04-27T03:54:24;99101.34;;;1.75;100.00
51099;BME280;37146;48.210;16.234;2023-04-27T03:56:49;99102.34;;;1.63;100.00
51099;BME280;37146;48.210;16.234;2023-04-27T03:59:14;99108.38;;;1.73;100.00
51099;BME280;37146;48.210;16.234;2023-04-27T04:01:39;99100.28;;;1.85;100.00
51099;BME280;37146;48.210;16.234;2023-04-27T04:04:05;99107.25;;;1.89;100.00
51099;BME280;37146;48.210;16.234;2023-04-27T04:06:30;99106.19;;;2.03;100.00
51099;BME280;37146;48.210;16.234;2023-04-27T04:08:56;99108.78;;;2.04;100.00
51099;BME280;37146;48.210;16.234;2023-04-27T04:11:21;99106.00;;;2.15;100.00
51099;BME280;37146;48.210;16.234;2023-04-27T04:13:46;99107.81;;;2.10;100.00
51099;BME280;37146;48.210;16.234;2023-04-27T04:16:12;99104.09;;;2.23;100.00
51099;BME280;37146;48.210;16.234;2023-04-27T04:18:37;99106.19;;;2.03;100.00
51099;BME280;37146;48.210;16.234;2023-04-27T04:21:03;99100.78;;;2.10;100.00
51099;BME280;37146;48.210;16.234;2023-04-27T04:23:28;99103.53;;;2.03;100.00
51099;BME280;37146;48.210;16.234;2023-04-27T04:25:54;99104.16;;;2.20;100.00
51099;BME280;37146;48.210;16.234;2023-04-27T04:28:20;99112.69;;;2.35;100.00
51099;BME280;37146;48.210;16.234;2023-04-27T04:30:46;99107.13;;;2.53;100.00
51099;BME280;37146;48.210;16.234;2023-04-27T04:33:12;99113.38;;;2.47;100.00
51099;BME280;37146;48.210;16.234;2023-04-27T04:35:37;99115.47;;;2.78;100.00
51099;BME280;37146;48.210;16.234;2023-04-27T04:38:03;99112.53;;;2.94;100.00
51099;BME280;37146;48.210;16.234;2023-04-27T04:40:28;99113.16;;;3.08;100.00
51099;BME280;37146;48.210;16.234;2023-04-27T04:42:53;99118.66;;;2.98;100.00
51099;BME280;37146;48.210;16.234;2023-04-27T04:45:18;99124.75;;;3.01;100.00
51099;BME280;37146;48.210;16.234;2023-04-27T04:47:44;99107.47;;;3.27;100.00
51099;BME280;37146;48.210;16.234;2023-04-27T04:50:09;99117.47;;;3.13;100.00
51099;BME280;37146;48.210;16.234;2023-04-27T04:52:34;99116.44;;;3.20;100.00
51099;BME280;37146;48.210;16.234;2023-04-27T04:55:01;99114.75;;;3.17;100.00
51099;BME280;37146;48.210;16.234;2023-04-27T04:57:26;99116.94;;;3.39;100.00
51099;BME280;37146;48.210;16.234;2023-04-27T04:59:52;99118.72;;;3.38;100.00
51099;BME280;37146;48.210;16.234;2023-04-27T05:02:17;99117.91;;;3.35;100.00
51099;BME280;37146;48.210;16.234;2023-04-27T05:04:42;99111.63;;;3.40;100.00
51099;BME280;37146;48.210;16.234;2023-04-27T05:07:07;99124.78;;;3.44;100.00
51099;BME280;37146;48.210;16.234;2023-04-27T05:09:32;99122.97;;;3.46;100.00
51099;BME280;37146;48.210;16.234;2023-04-27T05:11:59;99123.44;;;3.66;100.00
51099;BME280;37146;48.210;16.234;2023-04-27T05:14:25;99118.03;;;3.69;100.00
51099;BME280;37146;48.210;16.234;2023-04-27T05:16:50;99130.53;;;3.64;99.72
51099;BME280;37146;48.210;16.234;2023-04-27T05:19:16;99123.13;;;3.80;98.03
51099;BME280;37146;48.210;16.234;2023-04-27T05:21:43;99123.72;;;3.52;98.10
51099;BME280;37146;48.210;16.234;2023-04-27T05:24:08;99124.28;;;3.68;98.47
51099;BME280;37146;48.210;16.234;2023-04-27T05:26:33;99131.19;;;3.74;96.90
51099;BME280;37146;48.210;16.234;2023-04-27T05:28:58;99133.31;;;3.56;98.12
51099;BME280;37146;48.210;16.234;2023-04-27T05:31:24;99133.66;;;3.41;95.76
51099;BME280;37146;48.210;16.234;2023-04-27T05:33:49;99129.09;;;3.48;95.09
51099;BME280;37146;48.210;16.234;2023-04-27T05:36:15;99128.22;;;3.47;95.34
51099;BME280;37146;48.210;16.234;2023-04-27T05:38:40;99137.94;;;3.87;95.56
51099;BME280;37146;48.210;16.234;2023-04-27T05:41:05;99134.91;;;4.06;92.78
51099;BME280;37146;48.210;16.234;2023-04-27T05:43:31;99146.63;;;4.32;94.54
51099;BME280;37146;48.210;16.234;2023-04-27T05:45:58;99144.44;;;4.49;92.87
51099;BME280;37146;48.210;16.234;2023-04-27T05:48:24;99141.56;;;4.59;90.39
51099;BME280;37146;48.210;16.234;2023-04-27T05:50:57;99151.19;;;4.63;91.66
51099;BME280;37146;48.210;16.234;2023-04-27T05:53:22;99149.56;;;4.92;88.97
51099;BME280;37146;48.210;16.234;2023-04-27T05:55:47;99141.53;;;4.95;88.28
51099;BME280;37146;48.210;16.234;2023-04-27T05:58:12;99146.31;;;5.14;85.32
51099;BME280;37146;48.210;16.234;2023-04-27T06:00:38;99146.84;;;4.95;82.68
51099;BME280;37146;48.210;16.234;2023-04-27T06:03:03;99148.97;;;5.14;83.98
51099;BME280;37146;48.210;16.234;2023-04-27T06:05:28;99139.50;;;5.36;85.57
51099;BME280;37146;48.210;16.234;2023-04-27T06:07:53;99137.34;;;5.51;80.62
51099;BME280;37146;48.210;16.234;2023-04-27T06:10:19;99153.25;;;5.51;79.59
51099;BME280;37146;48.210;16.234;2023-04-27T06:12:44;99156.28;;;5.37;77.73
51099;BME280;37146;48.210;16.234;2023-04-27T06:15:10;99146.84;;;5.58;76.96
51099;BME280;37146;48.210;16.234;2023-04-27T06:17:36;99153.97;;;5.87;81.76
51099;BME280;37146;48.210;16.234;2023-04-27T06:20:02;99149.78;;;6.09;83.10
51099;BME280;37146;48.210;16.234;2023-04-27T06:22:31;99157.97;;;6.31;78.92
51099;BME280;37146;48.210;16.234;2023-04-27T06:24:56;99162.22;;;6.37;77.56
51099;BME280;37146;48.210;16.234;2023-04-27T06:27:21;99161.16;;;6.41;77.71
51099;BME280;37146;48.210;16.234;2023-04-27T06:29:46;99161.72;;;6.79;77.55
51099;BME280;37146;48.210;16.234;2023-04-27T06:32:11;99159.47;;;6.93;76.49
51099;BME280;37146;48.210;16.234;2023-04-27T06:34:37;99166.19;;;6.77;76.87
51099;BME280;37146;48.210;16.234;2023-04-27T06:37:02;99156.84;;;7.17;72.47
51099;BME280;37146;48.210;16.234;2023-04-27T06:39:27;99161.19;;;7.20;63.08
51099;BME280;37146;48.210;16.234;2023-04-27T06:41:52;99158.03;;;7.34;60.72
51099;BME280;37146;48.210;16.234;2023-04-27T06:44:17;99161.28;;;7.42;61.95
51099;BME280;37146;48.210;16.234;2023-04-27T06:46:43;99165.00;;;7.62;59.12
51099;BME280;37146;48.210;16.234;2023-04-27T06:49:08;99164.72;;;7.69;59.13
51099;BME280;37146;48.210;16.234;2023-04-27T06:51:33;99160.56;;;7.62;57.98
51099;BME280;37146;48.210;16.234;2023-04-27T06:53:58;99157.94;;;7.84;59.22
51099;BME280;37146;48.210;16.234;2023-04-27T06:56:23;99167.50;;;7.90;57.31
51099;BME280;37146;48.210;16.234;2023-04-27T06:58:49;99161.47;;;8.09;59.80
51099;BME280;37146;48.210;16.234;2023-04-27T07:01:14;99159.38;;;8.39;57.80
51099;BME280;37146;48.210;16.234;2023-04-27T07:03:39;99157.63;;;8.38;52.26
51099;BME280;37146;48.210;16.234;2023-04-27T07:06:04;99158.88;;;8.29;51.70
51099;BME280;37146;48.210;16.234;2023-04-27T07:08:30;99147.78;;;8.18;51.40
51099;BME280;37146;48.210;16.234;2023-04-27T07:10:55;99152.19;;;8.41;51.20
51099;BME280;37146;48.210;16.234;2023-04-27T07:13:20;99146.66;;;8.47;50.95
51099;BME280;37146;48.210;16.234;2023-04-27T07:15:45;99142.56;;;8.81;52.58
51099;BME280;37146;48.210;16.234;2023-04-27T07:18:11;99147.06;;;8.59;51.75
51099;BME280;37146;48.210;16.234;2023-04-27T07:20:36;99147.72;;;8.64;49.78
51099;BME280;37146;48.210;16.234;2023-04-27T07:23:01;99140.28;;;8.72;51.05
51099;BME280;37146;48.210;16.234;2023-04-27T07:25:27;99146.53;;;8.71;49.58
51099;BME280;37146;48.210;16.234;2023-04-27T07:27:53;99140.75;;;8.82;50.19
51099;BME280;37146;48.210;16.234;2023-04-27T07:30:19;99137.50;;;8.96;51.42
51099;BME280;37146;48.210;16.234;2023-04-27T07:32:44;99140.69;;;9.04;52.60
51099;BME280;37146;48.210;16.234;2023-04-27T07:35:10;99143.22;;;8.87;51.45
51099;BME280;37146;48.210;16.234;2023-04-27T07:37:35;99153.09;;;8.85;50.89
51099;BME280;37146;48.210;16.234;2023-04-27T07:40:04;99143.63;;;8.98;50.37
51099;BME280;37146;48.210;16.234;2023-04-27T07:42:38;99145.81;;;8.88;50.09
51099;BME280;37146;48.210;16.234;2023-04-27T07:45:06;99145.38;;;9.20;50.36
51099;BME280;37146;48.210;16.234;2023-04-27T07:47:31;99143.63;;;9.19;49.75
51099;BME280;37146;48.210;16.234;2023-04-27T07:49:57;99145.78;;;9.10;48.38
51099;BME280;37146;48.210;16.234;2023-04-27T07:52:22;99151.56;;;9.41;48.68
51099;BME280;37146;48.210;16.234;2023-04-27T07:54:47;99159.91;;;9.33;47.61
51099;BME280;37146;48.210;16.234;2023-04-27T07:57:13;99152.63;;;9.37;48.29
51099;BME280;37146;48.210;16.234;2023-04-27T07:59:38;99151.97;;;9.32;45.45
51099;BME280;37146;48.210;16.234;2023-04-27T08:02:04;99152.94;;;9.50;46.49
51099;BME280;37146;48.210;16.234;2023-04-27T08:04:29;99141.56;;;9.65;46.29
51099;BME280;37146;48.210;16.234;2023-04-27T08:06:54;99145.94;;;9.87;48.42
51099;BME280;37146;48.210;16.234;2023-04-27T08:09:19;99154.69;;;9.51;45.47
51099;BME280;37146;48.210;16.234;2023-04-27T08:11:45;99148.88;;;9.62;46.18
51099;BME280;37146;48.210;16.234;2023-04-27T08:14:10;99141.56;;;9.65;45.27
51099;BME280;37146;48.210;16.234;2023-04-27T08:16:39;99150.91;;;9.95;44.59
51099;BME280;37146;48.210;16.234;2023-04-27T08:19:04;99147.06;;;9.62;44.20
51099;BME280;37146;48.210;16.234;2023-04-27T08:21:30;99152.13;;;10.06;45.27
51099;BME280;37146;48.210;16.234;2023-04-27T08:23:56;99161.66;;;10.50;45.79
51099;BME280;37146;48.210;16.234;2023-04-27T08:26:22;99152.84;;;10.29;44.72
51099;BME280;37146;48.210;16.234;2023-04-27T08:28:47;99155.16;;;9.80;44.44
51099;BME280;37146;48.210;16.234;2023-04-27T08:31:13;99150.25;;;10.09;45.49
51099;BME280;37146;48.210;16.234;2023-04-27T08:33:38;99152.69;;;10.32;43.82
51099;BME280;37146;48.210;16.234;2023-04-27T08:36:03;99150.25;;;10.47;44.78
51099;BME280;37146;48.210;16.234;2023-04-27T08:38:29;99154.72;;;10.46;43.14
51099;BME280;37146;48.210;16.234;2023-04-27T08:40:54;99156.03;;;10.38;43.58
51099;BME280;37146;48.210;16.234;2023-04-27T08:43:19;99152.78;;;11.38;43.99
51099;BME280;37146;48.210;16.234;2023-04-27T08:45:48;99153.34;;;11.09;41.84
51099;BME280;37146;48.210;16.234;2023-04-27T08:48:14;99151.38;;;11.31;41.52
51099;BME280;37146;48.210;16.234;2023-04-27T08:50:39;99145.84;;;11.51;41.86
51099;BME280;37146;48.210;16.234;2023-04-27T08:53:15;99153.59;;;11.05;41.99
51099;BME280;37146;48.210;16.234;2023-04-27T08:55:40;99155.50;;;10.85;42.34
51099;BME280;37146;48.210;16.234;2023-04-27T08:58:06;99161.00;;;11.00;43.00
51099;BME280;37146;48.210;16.234;2023-04-27T09:00:36;99160.44;;;11.28;42.52
51099;BME280;37146;48.210;16.234;2023-04-27T09:03:03;99161.63;;;11.05;42.34
51099;BME280;37146;48.210;16.234;2023-04-27T09:05:28;99153.38;;;11.60;43.59
51099;BME280;37146;48.210;16.234;2023-04-27T09:08:03;99153.06;;;11.67;41.02
51099;BME280;37146;48.210;16.234;2023-04-27T09:10:48;99154.94;;;11.65;42.10
51099;BME280;37146;48.210;16.234;2023-04-27T09:13:13;99152.28;;;11.65;41.45
51099;BME280;37146;48.210;16.234;2023-04-27T09:15:46;99150.53;;;11.64;42.61
51099;BME280;37146;48.210;16.234;2023-04-27T09:18:15;99153.84;;;12.02;41.40
51099;BME280;37146;48.210;16.234;2023-04-27T09:20:45;99139.28;;;12.55;43.54
51099;BME280;37146;48.210;16.234;2023-04-27T09:23:11;99149.78;;;12.90;44.45
51099;BME280;37146;48.210;16.234;2023-04-27T09:25:47;99153.16;;;13.38;39.45
51099;BME280;37146;48.210;16.234;2023-04-27T09:28:13;99150.47;;;11.81;41.08
51099;BME280;37146;48.210;16.234;2023-04-27T09:30:38;99144.50;;;12.26;40.68
51099;BME280;37146;48.210;16.234;2023-04-27T09:33:03;99141.53;;;12.93;40.60
51099;BME280;37146;48.210;16.234;2023-04-27T09:35:31;99151.56;;;13.50;41.57
51099;BME280;37146;48.210;16.234;2023-04-27T09:37:57;99148.09;;;12.73;39.52
51099;BME280;37146;48.210;16.234;2023-04-27T09:40:23;99135.88;;;12.97;39.37
51099;BME280;37146;48.210;16.234;2023-04-27T09:42:50;99140.44;;;14.42;41.16
51099;BME280;37146;48.210;16.234;2023-04-27T09:45:16;99144.22;;;13.38;39.04
51099;BME280;37146;48.210;16.234;2023-04-27T09:47:41;99141.75;;;13.04;38.63
51099;BME280;37146;48.210;16.234;2023-04-27T09:50:07;99139.38;;;12.37;38.84
51099;BME280;37146;48.210;16.234;2023-04-27T09:52:33;99141.97;;;13.89;42.41
51099;BME280;37146;48.210;16.234;2023-04-27T09:54:58;99133.84;;;13.32;37.56
51099;BME280;37146;48.210;16.234;2023-04-27T09:57:27;99131.91;;;13.64;39.40
51099;BME280;37146;48.210;16.234;2023-04-27T10:00:02;99114.22;;;13.45;40.66
51099;BME280;37146;48.210;16.234;2023-04-27T10:02:38;99112.59;;;13.57;39.28
51099;BME280;37146;48.210;16.234;2023-04-27T10:05:12;99115.44;;;14.40;39.11
51099;BME280;37146;48.210;16.234;2023-04-27T10:07:40;99112.72;;;14.54;39.00
51099;BME280;37146;48.210;16.234;2023-04-27T10:10:14;99108.22;;;15.72;36.45
51099;BME280;37146;48.210;16.234;2023-04-27T10:12:40;99105.56;;;15.85;36.40
51099;BME280;37146;48.210;16.234;2023-04-27T10:15:12;99106.47;;;14.94;39.18
51099;BME280;37146;48.210;16.234;2023-04-27T10:17:37;99099.72;;;15.66;37.17
51099;BME280;37146;48.210;16.234;2023-04-27T10:20:04;99102.84;;;14.67;35.59
51099;BME280;37146;48.210;16.234;2023-04-27T10:22:38;99102.22;;;15.17;36.97
51099;BME280;37146;48.210;16.234;2023-04-27T10:27:39;99093.63;;;16.14;35.91
51099;BME280;37146;48.210;16.234;2023-04-27T10:30:11;99086.03;;;14.64;36.71
51099;BME280;37146;48.210;16.234;2023-04-27T10:32:36;99080.72;;;15.80;35.28
51099;BME280;37146;48.210;16.234;2023-04-27T10:35:02;99082.25;;;15.33;36.29
51099;BME280;37146;48.210;16.234;2023-04-27T10:37:39;99080.09;;;15.64;34.45
51099;BME280;37146;48.210;16.234;2023-04-27T10:40:11;99084.22;;;16.19;33.86
51099;BME280;37146;48.210;16.234;2023-04-27T10:42:41;99083.66;;;15.38;37.17
51099;BME280;37146;48.210;16.234;2023-04-27T10:45:06;99082.25;;;16.21;34.56
51099;BME280;37146;48.210;16.234;2023-04-27T10:47:39;99080.94;;;17.23;36.92
51099;BME280;37146;48.210;16.234;2023-04-27T10:50:06;99070.16;;;17.68;34.78
51099;BME280;37146;48.210;16.234;2023-04-27T10:52:31;99072.19;;;16.72;33.42
51099;BME280;37146;48.210;16.234;2023-04-27T10:54:57;99075.16;;;16.80;35.88
51099;BME280;37146;48.210;16.234;2023-04-27T10:57:22;99069.78;;;17.39;35.65
51099;BME280;37146;48.210;16.234;2023-04-27T10:59:48;99078.41;;;17.44;38.27
51099;BME280;37146;48.210;16.234;2023-04-27T11:02:14;99079.94;;;16.77;35.48
51099;BME280;37146;48.210;16.234;2023-04-27T11:04:39;99077.78;;;16.33;36.80
51099;BME280;37146;48.210;16.234;2023-04-27T11:07:06;99070.19;;;15.51;37.90
51099;BME280;37146;48.210;16.234;2023-04-27T11:09:35;99072.22;;;15.60;37.90
51099;BME280;37146;48.210;16.234;2023-04-27T11:12:01;99076.00;;;15.71;35.96
51099;BME280;37146;48.210;16.234;2023-04-27T11:14:27;99067.59;;;15.63;37.13
51099;BME280;37146;48.210;16.234;2023-04-27T11:16:53;99067.16;;;15.69;35.51
51099;BME280;37146;48.210;16.234;2023-04-27T11:19:19;99073.19;;;15.85;37.14
51099;BME280;37146;48.210;16.234;2023-04-27T11:21:44;99068.06;;;15.30;38.16
51099;BME280;37146;48.210;16.234;2023-04-27T11:24:09;99072.34;;;14.94;36.45
51099;BME280;37146;48.210;16.234;2023-04-27T11:26:35;99068.19;;;15.79;36.97
51099;BME280;37146;48.210;16.234;2023-04-27T11:31:39;99072.69;;;16.77;36.12
51099;BME280;37146;48.210;16.234;2023-04-27T11:34:05;99072.19;;;16.72;36.60
51099;BME280;37146;48.210;16.234;2023-04-27T11:36:31;99067.59;;;15.63;41.13
51099;BME280;37146;48.210;16.234;2023-04-27T11:38:57;99068.81;;;15.45;36.75
51099;BME280;37146;48.210;16.234;2023-04-27T11:41:31;99077.16;;;15.67;37.16
51099;BME280;37146;48.210;16.234;2023-04-27T11:44:02;99074.13;;;16.70;37.01
51099;BME280;37146;48.210;16.234;2023-04-27T11:46:27;99073.81;;;17.90;35.24
51099;BME280;37146;48.210;16.234;2023-04-27T11:48:52;99067.06;;;19.47;32.02
51099;BME280;37146;48.210;16.234;2023-04-27T11:51:24;99072.47;;;18.62;32.67
51099;BME280;37146;48.210;16.234;2023-04-27T11:53:50;99069.38;;;19.30;31.65
51099;BME280;37146;48.210;16.234;2023-04-27T11:56:16;99074.53;;;18.26;29.96
51099;BME280;37146;48.210;16.234;2023-04-27T11:58:42;99069.94;;;21.83;29.14
51099;BME280;37146;48.210;16.234;2023-04-27T12:01:08;99063.31;;;18.63;32.54
51099;BME280;37146;48.210;16.234;2023-04-27T12:03:34;99058.59;;;17.43;33.99
51099;BME280;37146;48.210;16.234;2023-04-27T12:06:00;99062.03;;;17.68;34.72
51099;BME280;37146;48.210;16.234;2023-04-27T12:08:25;99058.94;;;17.27;35.40
51099;BME280;37146;48.210;16.234;2023-04-27T12:10:51;99063.78;;;16.52;32.75
51099;BME280;37146;48.210;16.234;2023-04-27T12:13:16;99056.06;;;16.70;31.53
51099;BME280;37146;48.210;16.234;2023-04-27T12:15:41;99051.06;;;16.77;32.04
51099;BME280;37146;48.210;16.234;2023-04-27T12:18:07;99052.09;;;16.88;34.64
51099;BME280;37146;48.210;16.234;2023-04-27T12:20:33;99046.91;;;16.73;32.50
51099;BME280;37146;48.210;16.234;2023-04-27T12:22:58;99050.28;;;16.52;33.80
51099;BME280;37146;48.210;16.234;2023-04-27T12:25:23;99053.22;;;15.88;34.82
51099;BME280;37146;48.210;16.234;2023-04-27T12:27:49;99055.75;;;15.26;35.64
51099;BME280;37146;48.210;16.234;2023-04-27T12:30:14;99059.09;;;15.56;35.32
51099;BME280;37146;48.210;16.234;2023-04-27T12:32:39;99038.53;;;15.03;35.53
51099;BME280;37146;48.210;16.234;2023-04-27T12:35:05;99050.16;;;15.29;34.89
51099;BME280;37146;48.210;16.234;2023-04-27T12:37:31;99044.69;;;15.81;33.79
51099;BME280;37146;48.210;16.234;2023-04-27T12:39:56;99037.56;;;16.42;33.49
51099;BME280;37146;48.210;16.234;2023-04-27T12:42:22;99038.00;;;16.95;34.01
51099;BME280;37146;48.210;16.234;2023-04-27T12:44:48;99043.19;;;16.63;33.63
51099;BME280;37146;48.210;16.234;2023-04-27T12:47:13;99044.19;;;16.13;35.44
51099;BME280;37146;48.210;16.234;2023-04-27T12:49:38;99041.94;;;16.67;34.92
51099;BME280;37146;48.210;16.234;2023-04-27T12:52:04;99039.44;;;17.35;35.08